sensor_id;sensor_type;location;lat;lon;timestamp;P1;durP1;ratioP1;P2;durP2;ratioP2
47433;SDS011;33184;48.774;8.918;2023-02-15T00:01:43;39.20;;;22.03;;
47433;SDS011;33184;48.774;8.918;2023-02-15T00:07:03;37.67;;;22.70;;
47433;SDS011;33184;48.774;8.918;2023-02-15T00:12:24;38.03;;;21.53;;
47433;SDS011;33184;48.774;8.918;2023-02-15T00:17:44;35.97;;;21.27;;
47433;SDS011;33184;48.774;8.918;2023-02-15T00:23:05;33.13;;;20.50;;
47433;SDS011;33184;48.774;8.918;2023-02-15T00:28:25;37.23;;;23.33;;
47433;SDS011;33184;48.774;8.918;2023-02-15T00:33:46;30.73;;;20.07;;
47433;SDS011;33184;48.774;8.918;2023-02-15T00:39:07;38.13;;;20.93;;
47433;SDS011;33184;48.774;8.918;2023-02-15T00:44:29;32.50;;;19.90;;
47433;SDS011;33184;48.774;8.918;2023-02-15T00:49:50;30.70;;;20.03;;
47433;SDS011;33184;48.774;8.918;2023-02-15T00:55:11;35.23;;;18.43;;
47433;SDS011;33184;48.774;8.918;2023-02-15T01:00:32;31.53;;;18.93;;
47433;SDS011;33184;48.774;8.918;2023-02-15T01:05:53;38.03;;;21.03;;
47433;SDS011;33184;48.774;8.918;2023-02-15T01:11:15;32.40;;;19.43;;
47433;SDS011;33184;48.774;8.918;2023-02-15T01:16:43;36.97;;;20.53;;
47433;SDS011;33184;48.774;8.918;2023-02-15T01:22:04;36.73;;;19.97;;
47433;SDS011;33184;48.774;8.918;2023-02-15T01:27:28;39.80;;;20.93;;
47433;SDS011;33184;48.774;8.918;2023-02-15T01:32:50;32.60;;;18.47;;
47433;SDS011;33184;48.774;8.918;2023-02-15T01:38:11;32.90;;;18.57;;
47433;SDS011;33184;48.774;8.918;2023-02-15T01:43:40;30.57;;;19.20;;
47433;SDS011;33184;48.774;8.918;2023-02-15T01:49:03;29.93;;;18.60;;
47433;SDS011;33184;48.774;8.918;2023-02-15T01:54:31;32.03;;;19.13;;
47433;SDS011;33184;48.774;8.918;2023-02-15T01:59:58;33.27;;;19.73;;
47433;SDS011;33184;48.774;8.918;2023-02-15T02:05:21;35.77;;;19.87;;
47433;SDS011;33184;48.774;8.918;2023-02-15T02:10:42;30.30;;;17.43;;
47433;SDS011;33184;48.774;8.918;2023-02-15T02:27:49;33.03;;;17.90;;
47433;SDS011;33184;48.774;8.918;2023-02-15T02:33:21;33.50;;;18.93;;
47433;SDS011;33184;48.774;8.918;2023-02-15T02:50:01;26.93;;;18.43;;
47433;SDS011;33184;48.774;8.918;2023-02-15T03:00:56;28.87;;;16.93;;
47433;SDS011;33184;48.774;8.918;2023-02-15T03:06:25;30.57;;;15.97;;
47433;SDS011;33184;48.774;8.918;2023-02-15T03:11:53;27.60;;;15.67;;
47433;SDS011;33184;48.774;8.918;2023-02-15T03:17:15;22.23;;;14.53;;
47433;SDS011;33184;48.774;8.918;2023-02-15T03:22:42;24.87;;;14.50;;
47433;SDS011;33184;48.774;8.918;2023-02-15T03:28:09;23.30;;;15.10;;
47433;SDS011;33184;48.774;8.918;2023-02-15T03:33:34;27.67;;;15.23;;
47433;SDS011;33184;48.774;8.918;2023-02-15T03:44:46;28.17;;;15.83;;
47433;SDS011;33184;48.774;8.918;2023-02-15T03:50:13;31.23;;;15.90;;
47433;SDS011;33184;48.774;8.918;2023-02-15T03:55:58;25.50;;;15.17;;
47433;SDS011;33184;48.774;8.918;2023-02-15T04:07:02;24.20;;;14.87;;
47433;SDS011;33184;48.774;8.918;2023-02-15T04:12:24;25.13;;;14.70;;
47433;SDS011;33184;48.774;8.918;2023-02-15T04:17:44;26.40;;;15.27;;
47433;SDS011;33184;48.774;8.918;2023-02-15T04:23:05;24.67;;;15.10;;
47433;SDS011;33184;48.774;8.918;2023-02-15T04:28:45;24.87;;;16.23;;
47433;SDS011;33184;48.774;8.918;2023-02-15T04:34:06;26.80;;;17.67;;
47433;SDS011;33184;48.774;8.918;2023-02-15T04:39:26;27.83;;;17.67;;
47433;SDS011;33184;48.774;8.918;2023-02-15T04:44:47;31.20;;;17.93;;
47433;SDS011;33184;48.774;8.918;2023-02-15T04:50:07;25.80;;;15.73;;
47433;SDS011;33184;48.774;8.918;2023-02-15T04:55:28;29.33;;;16.40;;
47433;SDS011;33184;48.774;8.918;2023-02-15T05:00:49;28.30;;;16.70;;
47433;SDS011;33184;48.774;8.918;2023-02-15T05:06:09;30.07;;;16.33;;
47433;SDS011;33184;48.774;8.918;2023-02-15T05:11:30;25.57;;;14.90;;
47433;SDS011;33184;48.774;8.918;2023-02-15T05:16:50;28.60;;;15.13;;
47433;SDS011;33184;48.774;8.918;2023-02-15T05:22:11;25.43;;;15.43;;
47433;SDS011;33184;48.774;8.918;2023-02-15T05:27:31;27.53;;;16.60;;
47433;SDS011;33184;48.774;8.918;2023-02-15T05:33:11;28.70;;;15.00;;
47433;SDS011;33184;48.774;8.918;2023-02-15T05:38:31;29.03;;;15.33;;
47433;SDS011;33184;48.774;8.918;2023-02-15T05:43:54;35.40;;;16.77;;
47433;SDS011;33184;48.774;8.918;2023-02-15T05:49:16;26.63;;;17.17;;
47433;SDS011;33184;48.774;8.918;2023-02-15T05:54:36;27.03;;;15.93;;
47433;SDS011;33184;48.774;8.918;2023-02-15T05:59:57;34.90;;;17.07;;
47433;SDS011;33184;48.774;8.918;2023-02-15T06:05:17;36.37;;;18.23;;
47433;SDS011;33184;48.774;8.918;2023-02-15T06:10:38;30.70;;;18.10;;
47433;SDS011;33184;48.774;8.918;2023-02-15T06:16:00;29.83;;;18.60;;
47433;SDS011;33184;48.774;8.918;2023-02-15T06:21:20;36.40;;;18.80;;
47433;SDS011;33184;48.774;8.918;2023-02-15T06:26:41;44.07;;;22.13;;
47433;SDS011;33184;48.774;8.918;2023-02-15T06:32:01;45.17;;;22.57;;
47433;SDS011;33184;48.774;8.918;2023-02-15T06:37:22;35.93;;;20.50;;
47433;SDS011;33184;48.774;8.918;2023-02-15T06:42:43;34.27;;;18.50;;
47433;SDS011;33184;48.774;8.918;2023-02-15T06:48:04;35.73;;;20.83;;
47433;SDS011;33184;48.774;8.918;2023-02-15T06:53:27;31.07;;;17.53;;
47433;SDS011;33184;48.774;8.918;2023-02-15T06:58:47;35.60;;;18.17;;
47433;SDS011;33184;48.774;8.918;2023-02-15T07:04:09;34.87;;;16.70;;
47433;SDS011;33184;48.774;8.918;2023-02-15T07:09:30;33.77;;;16.73;;
47433;SDS011;33184;48.774;8.918;2023-02-15T07:14:50;39.77;;;17.83;;
47433;SDS011;33184;48.774;8.918;2023-02-15T07:20:18;37.47;;;18.90;;
47433;SDS011;33184;48.774;8.918;2023-02-15T07:25:41;27.90;;;17.40;;
47433;SDS011;33184;48.774;8.918;2023-02-15T07:31:02;34.33;;;19.07;;
47433;SDS011;33184;48.774;8.918;2023-02-15T07:36:24;36.50;;;19.33;;
47433;SDS011;33184;48.774;8.918;2023-02-15T07:41:44;34.40;;;19.53;;
47433;SDS011;33184;48.774;8.918;2023-02-15T07:47:06;39.63;;;20.57;;
47433;SDS011;33184;48.774;8.918;2023-02-15T07:52:26;45.03;;;22.83;;
47433;SDS011;33184;48.774;8.918;2023-02-15T07:57:48;38.37;;;19.70;;
47433;SDS011;33184;48.774;8.918;2023-02-15T08:03:10;39.67;;;20.40;;
47433;SDS011;33184;48.774;8.918;2023-02-15T08:08:34;34.83;;;20.63;;
47433;SDS011;33184;48.774;8.918;2023-02-15T08:14:01;31.27;;;18.73;;
47433;SDS011;33184;48.774;8.918;2023-02-15T08:19:25;36.40;;;21.77;;
47433;SDS011;33184;48.774;8.918;2023-02-15T08:24:47;36.63;;;21.70;;
47433;SDS011;33184;48.774;8.918;2023-02-15T08:30:08;31.23;;;20.13;;
47433;SDS011;33184;48.774;8.918;2023-02-15T08:35:29;28.10;;;19.70;;
47433;SDS011;33184;48.774;8.918;2023-02-15T08:40:49;32.77;;;19.73;;
47433;SDS011;33184;48.774;8.918;2023-02-15T08:46:10;34.33;;;19.63;;
47433;SDS011;33184;48.774;8.918;2023-02-15T08:51:33;34.87;;;20.83;;
47433;SDS011;33184;48.774;8.918;2023-02-15T08:56:55;36.37;;;20.67;;
47433;SDS011;33184;48.774;8.918;2023-02-15T09:02:16;26.70;;;17.33;;
47433;SDS011;33184;48.774;8.918;2023-02-15T09:07:36;29.30;;;17.10;;
47433;SDS011;33184;48.774;8.918;2023-02-15T09:12:57;33.53;;;19.90;;
47433;SDS011;33184;48.774;8.918;2023-02-15T09:18:17;33.70;;;19.00;;
47433;SDS011;33184;48.774;8.918;2023-02-15T09:23:38;35.77;;;19.63;;
47433;SDS011;33184;48.774;8.918;2023-02-15T09:29:00;32.50;;;18.77;;
47433;SDS011;33184;48.774;8.918;2023-02-15T09:34:21;27.87;;;16.47;;
47433;SDS011;33184;48.774;8.918;2023-02-15T09:39:43;30.33;;;16.57;;
47433;SDS011;33184;48.774;8.918;2023-02-15T09:56:58;24.90;;;14.00;;
47433;SDS011;33184;48.774;8.918;2023-02-15T10:02:54;26.30;;;12.77;;
47433;SDS011;33184;48.774;8.918;2023-02-15T10:08:23;28.83;;;14.77;;
47433;SDS011;33184;48.774;8.918;2023-02-15T10:25:55;21.33;;;11.77;;
47433;SDS011;33184;48.774;8.918;2023-02-15T10:36:53;17.80;;;11.17;;
47433;SDS011;33184;48.774;8.918;2023-02-15T10:48:13;19.53;;;8.73;;
47433;SDS011;33184;48.774;8.918;2023-02-15T10:53:58;14.00;;;6.63;;
47433;SDS011;33184;48.774;8.918;2023-02-15T11:05:15;11.90;;;6.50;;
47433;SDS011;33184;48.774;8.918;2023-02-15T11:11:01;14.37;;;5.90;;
47433;SDS011;33184;48.774;8.918;2023-02-15T11:16:31;15.73;;;5.57;;
47433;SDS011;33184;48.774;8.918;2023-02-15T11:22:01;11.43;;;5.43;;
47433;SDS011;33184;48.774;8.918;2023-02-15T11:27:29;12.17;;;5.53;;
47433;SDS011;33184;48.774;8.918;2023-02-15T11:32:53;14.67;;;5.23;;
47433;SDS011;33184;48.774;8.918;2023-02-15T11:38:21;9.52;;;5.43;;
47433;SDS011;33184;48.774;8.918;2023-02-15T11:43:57;8.93;;;3.90;;
47433;SDS011;33184;48.774;8.918;2023-02-15T11:49:34;8.57;;;3.73;;
47433;SDS011;33184;48.774;8.918;2023-02-15T11:54:55;11.00;;;4.77;;
47433;SDS011;33184;48.774;8.918;2023-02-15T12:00:27;8.70;;;5.17;;
47433;SDS011;33184;48.774;8.918;2023-02-15T12:05:58;9.03;;;4.30;;
47433;SDS011;33184;48.774;8.918;2023-02-15T12:11:25;10.30;;;7.53;;
47433;SDS011;33184;48.774;8.918;2023-02-15T12:16:51;9.77;;;5.90;;
47433;SDS011;33184;48.774;8.918;2023-02-15T12:22:20;13.90;;;10.40;;
47433;SDS011;33184;48.774;8.918;2023-02-15T12:27:42;13.60;;;10.83;;
47433;SDS011;33184;48.774;8.918;2023-02-15T12:33:25;14.80;;;11.70;;
47433;SDS011;33184;48.774;8.918;2023-02-15T12:44:23;17.20;;;11.87;;
47433;SDS011;33184;48.774;8.918;2023-02-15T12:50:05;15.75;;;10.07;;
47433;SDS011;33184;48.774;8.918;2023-02-15T12:55:36;20.20;;;11.13;;
47433;SDS011;33184;48.774;8.918;2023-02-15T13:01:16;14.50;;;10.57;;
47433;SDS011;33184;48.774;8.918;2023-02-15T13:06:46;13.35;;;10.27;;
47433;SDS011;33184;48.774;8.918;2023-02-15T13:12:20;13.30;;;9.63;;
47433;SDS011;33184;48.774;8.918;2023-02-15T13:17:46;11.43;;;9.10;;
47433;SDS011;33184;48.774;8.918;2023-02-15T13:23:13;13.80;;;8.65;;
47433;SDS011;33184;48.774;8.918;2023-02-15T13:28:48;10.80;;;8.73;;
47433;SDS011;33184;48.774;8.918;2023-02-15T13:34:58;10.32;;;9.05;;
47433;SDS011;33184;48.774;8.918;2023-02-15T13:45:38;14.32;;;11.38;;
47433;SDS011;33184;48.774;8.918;2023-02-15T14:03:07;18.75;;;11.38;;
47433;SDS011;33184;48.774;8.918;2023-02-15T14:08:36;16.08;;;11.23;;
47433;SDS011;33184;48.774;8.918;2023-02-15T14:20:08;15.93;;;12.23;;
47433;SDS011;33184;48.774;8.918;2023-02-15T14:25:36;21.77;;;13.23;;
47433;SDS011;33184;48.774;8.918;2023-02-15T14:31:02;16.23;;;13.65;;
47433;SDS011;33184;48.774;8.918;2023-02-15T14:41:49;16.30;;;11.55;;
47433;SDS011;33184;48.774;8.918;2023-02-15T14:58:34;15.90;;;10.95;;
47433;SDS011;33184;48.774;8.918;2023-02-15T15:03:59;18.75;;;10.18;;
47433;SDS011;33184;48.774;8.918;2023-02-15T15:09:25;15.80;;;9.32;;
47433;SDS011;33184;48.774;8.918;2023-02-15T15:14:49;19.83;;;13.20;;
47433;SDS011;33184;48.774;8.918;2023-02-15T15:20:19;22.45;;;14.80;;
47433;SDS011;33184;48.774;8.918;2023-02-15T15:26:22;25.95;;;17.00;;
47433;SDS011;33184;48.774;8.918;2023-02-15T15:31:48;24.05;;;17.83;;
47433;SDS011;33184;48.774;8.918;2023-02-15T15:37:23;23.67;;;16.85;;
47433;SDS011;33184;48.774;8.918;2023-02-15T15:43:30;21.90;;;16.58;;
47433;SDS011;33184;48.774;8.918;2023-02-15T15:48:53;23.15;;;15.07;;
47433;SDS011;33184;48.774;8.918;2023-02-15T15:54:15;28.52;;;16.55;;
47433;SDS011;33184;48.774;8.918;2023-02-15T15:59:43;22.60;;;18.45;;
47433;SDS011;33184;48.774;8.918;2023-02-15T16:05:06;34.13;;;20.83;;
47433;SDS011;33184;48.774;8.918;2023-02-15T16:10:28;29.75;;;21.58;;
47433;SDS011;33184;48.774;8.918;2023-02-15T16:15:53;32.17;;;21.83;;
47433;SDS011;33184;48.774;8.918;2023-02-15T16:21:23;31.97;;;22.30;;
47433;SDS011;33184;48.774;8.918;2023-02-15T16:32:25;28.83;;;22.60;;
47433;SDS011;33184;48.774;8.918;2023-02-15T16:37:48;33.40;;;22.87;;
47433;SDS011;33184;48.774;8.918;2023-02-15T16:43:12;32.17;;;22.33;;
47433;SDS011;33184;48.774;8.918;2023-02-15T16:48:38;31.77;;;23.67;;
47433;SDS011;33184;48.774;8.918;2023-02-15T16:54:08;30.83;;;21.17;;
47433;SDS011;33184;48.774;8.918;2023-02-15T16:59:41;34.13;;;23.10;;
47433;SDS011;33184;48.774;8.918;2023-02-15T17:10:38;31.10;;;21.10;;
47433;SDS011;33184;48.774;8.918;2023-02-15T17:21:33;30.70;;;20.03;;
47433;SDS011;33184;48.774;8.918;2023-02-15T17:27:02;25.93;;;17.13;;
47433;SDS011;33184;48.774;8.918;2023-02-15T17:32:28;25.13;;;18.90;;
47433;SDS011;33184;48.774;8.918;2023-02-15T17:37:49;31.90;;;19.07;;
47433;SDS011;33184;48.774;8.918;2023-02-15T17:43:20;27.27;;;17.97;;
47433;SDS011;33184;48.774;8.918;2023-02-15T17:48:40;30.83;;;20.07;;
47433;SDS011;33184;48.774;8.918;2023-02-15T17:54:01;26.50;;;20.30;;
47433;SDS011;33184;48.774;8.918;2023-02-15T17:59:41;29.27;;;17.57;;
47433;SDS011;33184;48.774;8.918;2023-02-15T18:05:20;32.30;;;20.67;;
47433;SDS011;33184;48.774;8.918;2023-02-15T18:11:00;38.33;;;21.73;;
47433;SDS011;33184;48.774;8.918;2023-02-15T18:16:41;33.30;;;19.43;;
47433;SDS011;33184;48.774;8.918;2023-02-15T18:22:07;32.60;;;20.97;;
47433;SDS011;33184;48.774;8.918;2023-02-15T18:27:30;27.27;;;19.33;;
47433;SDS011;33184;48.774;8.918;2023-02-15T18:32:51;31.17;;;20.07;;
47433;SDS011;33184;48.774;8.918;2023-02-15T18:38:15;33.20;;;18.70;;
47433;SDS011;33184;48.774;8.918;2023-02-15T18:43:36;32.53;;;20.50;;
47433;SDS011;33184;48.774;8.918;2023-02-15T18:48:56;31.07;;;19.40;;
47433;SDS011;33184;48.774;8.918;2023-02-15T18:54:19;31.17;;;20.03;;
47433;SDS011;33184;48.774;8.918;2023-02-15T18:59:42;32.70;;;19.27;;
47433;SDS011;33184;48.774;8.918;2023-02-15T19:05:03;26.77;;;20.13;;
47433;SDS011;33184;48.774;8.918;2023-02-15T19:10:24;29.77;;;19.57;;
47433;SDS011;33184;48.774;8.918;2023-02-15T19:15:47;32.63;;;20.93;;
47433;SDS011;33184;48.774;8.918;2023-02-15T19:21:10;33.50;;;18.87;;
47433;SDS011;33184;48.774;8.918;2023-02-15T19:26:34;29.93;;;19.80;;
47433;SDS011;33184;48.774;8.918;2023-02-15T19:37:39;30.77;;;20.03;;
47433;SDS011;33184;48.774;8.918;2023-02-15T19:43:01;36.50;;;21.47;;
47433;SDS011;33184;48.774;8.918;2023-02-15T19:48:22;30.53;;;19.97;;
47433;SDS011;33184;48.774;8.918;2023-02-15T19:53:44;38.47;;;20.50;;
47433;SDS011;33184;48.774;8.918;2023-02-15T19:59:14;32.30;;;20.30;;
47433;SDS011;33184;48.774;8.918;2023-02-15T20:04:41;24.27;;;15.70;;
47433;SDS011;33184;48.774;8.918;2023-02-15T20:10:02;25.77;;;17.07;;
47433;SDS011;33184;48.774;8.918;2023-02-15T20:15:24;26.77;;;19.37;;
47433;SDS011;33184;48.774;8.918;2023-02-15T20:20:47;37.67;;;23.13;;
47433;SDS011;33184;48.774;8.918;2023-02-15T20:26:14;34.63;;;21.73;;
47433;SDS011;33184;48.774;8.918;2023-02-15T20:31:37;29.47;;;19.70;;
47433;SDS011;33184;48.774;8.918;2023-02-15T20:36:58;29.93;;;17.30;;
47433;SDS011;33184;48.774;8.918;2023-02-15T20:42:19;23.10;;;16.23;;
47433;SDS011;33184;48.774;8.918;2023-02-15T20:47:40;28.60;;;17.97;;
47433;SDS011;33184;48.774;8.918;2023-02-15T20:53:04;25.70;;;17.40;;
47433;SDS011;33184;48.774;8.918;2023-02-15T20:58:28;31.50;;;19.37;;
47433;SDS011;33184;48.774;8.918;2023-02-15T21:03:49;28.17;;;18.57;;
47433;SDS011;33184;48.774;8.918;2023-02-15T21:09:14;33.03;;;20.60;;
47433;SDS011;33184;48.774;8.918;2023-02-15T21:14:35;32.55;;;19.13;;
47433;SDS011;33184;48.774;8.918;2023-02-15T21:19:56;30.13;;;17.50;;
47433;SDS011;33184;48.774;8.918;2023-02-15T21:25:23;27.80;;;19.60;;
47433;SDS011;33184;48.774;8.918;2023-02-15T21:30:48;27.73;;;17.57;;
47433;SDS011;33184;48.774;8.918;2023-02-15T21:36:17;24.37;;;16.20;;
47433;SDS011;33184;48.774;8.918;2023-02-15T21:41:40;27.53;;;16.53;;
47433;SDS011;33184;48.774;8.918;2023-02-15T21:47:24;26.03;;;16.17;;
47433;SDS011;33184;48.774;8.918;2023-02-15T21:53:07;25.33;;;16.70;;
47433;SDS011;33184;48.774;8.918;2023-02-15T21:58:33;27.40;;;15.93;;
47433;SDS011;33184;48.774;8.918;2023-02-15T22:03:56;22.83;;;15.48;;
47433;SDS011;33184;48.774;8.918;2023-02-15T22:09:19;26.70;;;16.53;;
47433;SDS011;33184;48.774;8.918;2023-02-15T22:14:40;27.17;;;16.93;;
47433;SDS011;33184;48.774;8.918;2023-02-15T22:20:04;28.53;;;17.80;;
47433;SDS011;33184;48.774;8.918;2023-02-15T22:25:32;29.43;;;16.77;;
47433;SDS011;33184;48.774;8.918;2023-02-15T22:30:53;25.60;;;16.93;;
47433;SDS011;33184;48.774;8.918;2023-02-15T22:36:24;26.37;;;15.67;;
47433;SDS011;33184;48.774;8.918;2023-02-15T22:41:46;33.10;;;19.23;;
47433;SDS011;33184;48.774;8.918;2023-02-15T22:47:08;40.43;;;24.77;;
47433;SDS011;33184;48.774;8.918;2023-02-15T22:52:37;43.33;;;27.27;;
47433;SDS011;33184;48.774;8.918;2023-02-15T22:57:58;45.27;;;25.20;;
47433;SDS011;33184;48.774;8.918;2023-02-15T23:03:21;39.03;;;23.73;;
47433;SDS011;33184;48.774;8.918;2023-02-15T23:08:43;28.67;;;20.67;;
47433;SDS011;33184;48.774;8.918;2023-02-15T23:14:04;32.40;;;17.83;;
47433;SDS011;33184;48.774;8.918;2023-02-15T23:19:24;34.73;;;16.93;;
47433;SDS011;33184;48.774;8.918;2023-02-15T23:24:46;30.57;;;15.20;;
47433;SDS011;33184;48.774;8.918;2023-02-15T23:30:11;19.10;;;12.13;;
47433;SDS011;33184;48.774;8.918;2023-02-15T23:35:33;22.50;;;13.07;;
47433;SDS011;33184;48.774;8.918;2023-02-15T23:40:57;26.40;;;14.40;;
47433;SDS011;33184;48.774;8.918;2023-02-15T23:46:42;23.10;;;14.20;;
47433;SDS011;33184;48.774;8.918;2023-02-15T23:52:04;22.67;;;12.50;;
47433;SDS011;33184;48.774;8.918;2023-02-15T23:57:28;25.08;;;13.52;;
